sensor_id;sensor_type;location;lat;lon;timestamp;P1;durP1;ratioP1;P2;durP2;ratioP2
55718;SDS011;41623;46.104;19.656;2022-11-15T00:00:26;5.57;;;2.55;;
55718;SDS011;41623;46.104;19.656;2022-11-15T00:02:52;6.88;;;3.60;;
55718;SDS011;41623;46.104;19.656;2022-11-15T00:05:18;6.28;;;4.15;;
55718;SDS011;41623;46.104;19.656;2022-11-15T00:07:44;11.50;;;4.90;;
55718;SDS011;41623;46.104;19.656;2022-11-15T00:10:10;6.57;;;4.03;;
55718;SDS011;41623;46.104;19.656;2022-11-15T00:12:37;10.25;;;4.28;;
55718;SDS011;41623;46.104;19.656;2022-11-15T00:15:03;7.28;;;4.75;;
55718;SDS011;41623;46.104;19.656;2022-11-15T00:17:30;7.60;;;5.47;;
55718;SDS011;41623;46.104;19.656;2022-11-15T00:19:56;8.65;;;3.17;;
55718;SDS011;41623;46.104;19.656;2022-11-15T00:22:22;6.10;;;3.25;;
55718;SDS011;41623;46.104;19.656;2022-11-15T00:24:48;7.30;;;4.20;;
55718;SDS011;41623;46.104;19.656;2022-11-15T00:27:14;9.15;;;4.38;;
55718;SDS011;41623;46.104;19.656;2022-11-15T00:29:40;9.77;;;4.70;;
55718;SDS011;41623;46.104;19.656;2022-11-15T00:32:09;11.60;;;5.10;;
55718;SDS011;41623;46.104;19.656;2022-11-15T00:34:36;9.07;;;4.50;;
55718;SDS011;41623;46.104;19.656;2022-11-15T00:37:02;11.25;;;5.38;;
55718;SDS011;41623;46.104;19.656;2022-11-15T00:39:28;10.52;;;5.40;;
55718;SDS011;41623;46.104;19.656;2022-11-15T00:41:54;15.05;;;5.35;;
55718;SDS011;41623;46.104;19.656;2022-11-15T00:44:20;8.07;;;4.68;;
55718;SDS011;41623;46.104;19.656;2022-11-15T00:46:46;15.38;;;5.32;;
55718;SDS011;41623;46.104;19.656;2022-11-15T00:49:12;10.57;;;5.32;;
55718;SDS011;41623;46.104;19.656;2022-11-15T00:51:38;6.30;;;3.90;;
55718;SDS011;41623;46.104;19.656;2022-11-15T00:54:04;8.43;;;4.40;;
55718;SDS011;41623;46.104;19.656;2022-11-15T00:56:30;5.85;;;3.58;;
55718;SDS011;41623;46.104;19.656;2022-11-15T00:58:56;6.05;;;3.22;;
55718;SDS011;41623;46.104;19.656;2022-11-15T01:01:22;12.18;;;4.28;;
55718;SDS011;41623;46.104;19.656;2022-11-15T01:03:48;6.85;;;3.83;;
55718;SDS011;41623;46.104;19.656;2022-11-15T01:06:14;7.85;;;4.35;;
55718;SDS011;41623;46.104;19.656;2022-11-15T01:08:40;13.35;;;4.80;;
55718;SDS011;41623;46.104;19.656;2022-11-15T01:11:08;10.00;;;5.00;;
55718;SDS011;41623;46.104;19.656;2022-11-15T01:13:34;10.15;;;4.00;;
55718;SDS011;41623;46.104;19.656;2022-11-15T01:16:08;7.15;;;4.07;;
55718;SDS011;41623;46.104;19.656;2022-11-15T01:21:04;8.93;;;4.28;;
55718;SDS011;41623;46.104;19.656;2022-11-15T01:23:30;9.75;;;4.57;;
55718;SDS011;41623;46.104;19.656;2022-11-15T01:25:59;7.65;;;4.50;;
55718;SDS011;41623;46.104;19.656;2022-11-15T01:28:29;7.28;;;4.80;;
55718;SDS011;41623;46.104;19.656;2022-11-15T01:30:57;8.02;;;4.40;;
55718;SDS011;41623;46.104;19.656;2022-11-15T01:33:23;9.98;;;5.38;;
55718;SDS011;41623;46.104;19.656;2022-11-15T01:35:49;14.90;;;5.25;;
55718;SDS011;41623;46.104;19.656;2022-11-15T01:38:15;11.80;;;5.50;;
55718;SDS011;41623;46.104;19.656;2022-11-15T01:40:41;11.27;;;5.30;;
55718;SDS011;41623;46.104;19.656;2022-11-15T01:43:24;11.93;;;5.50;;
55718;SDS011;41623;46.104;19.656;2022-11-15T01:45:52;12.65;;;5.30;;
55718;SDS011;41623;46.104;19.656;2022-11-15T01:48:20;10.95;;;5.55;;
55718;SDS011;41623;46.104;19.656;2022-11-15T01:50:46;10.13;;;4.95;;
55718;SDS011;41623;46.104;19.656;2022-11-15T01:53:12;4.90;;;3.53;;
55718;SDS011;41623;46.104;19.656;2022-11-15T01:55:39;8.20;;;4.25;;
55718;SDS011;41623;46.104;19.656;2022-11-15T01:58:05;9.00;;;4.22;;
55718;SDS011;41623;46.104;19.656;2022-11-15T02:00:31;12.80;;;5.88;;
55718;SDS011;41623;46.104;19.656;2022-11-15T02:02:57;13.95;;;5.05;;
55718;SDS011;41623;46.104;19.656;2022-11-15T02:05:23;12.88;;;4.32;;
55718;SDS011;41623;46.104;19.656;2022-11-15T02:07:49;7.10;;;4.43;;
55718;SDS011;41623;46.104;19.656;2022-11-15T02:10:20;8.50;;;5.00;;
55718;SDS011;41623;46.104;19.656;2022-11-15T02:12:46;15.23;;;6.20;;
55718;SDS011;41623;46.104;19.656;2022-11-15T02:15:13;9.38;;;5.22;;
55718;SDS011;41623;46.104;19.656;2022-11-15T02:31:28;8.00;;;4.30;;
55718;SDS011;41623;46.104;19.656;2022-11-15T02:33:57;9.15;;;4.35;;
55718;SDS011;41623;46.104;19.656;2022-11-15T02:44:14;4.43;;;2.65;;
55718;SDS011;41623;46.104;19.656;2022-11-15T02:46:48;6.43;;;3.15;;
55718;SDS011;41623;46.104;19.656;2022-11-15T02:49:34;7.70;;;4.45;;
55718;SDS011;41623;46.104;19.656;2022-11-15T02:52:01;11.20;;;3.92;;
55718;SDS011;41623;46.104;19.656;2022-11-15T02:54:30;8.23;;;3.95;;
55718;SDS011;41623;46.104;19.656;2022-11-15T02:57:01;8.68;;;4.68;;
55718;SDS011;41623;46.104;19.656;2022-11-15T03:02:04;15.48;;;5.15;;
55718;SDS011;41623;46.104;19.656;2022-11-15T03:04:44;11.68;;;4.90;;
55718;SDS011;41623;46.104;19.656;2022-11-15T03:07:19;12.50;;;5.25;;
55718;SDS011;41623;46.104;19.656;2022-11-15T03:09:54;5.45;;;3.33;;
55718;SDS011;41623;46.104;19.656;2022-11-15T03:12:25;6.40;;;3.63;;
55718;SDS011;41623;46.104;19.656;2022-11-15T03:14:58;8.98;;;3.95;;
55718;SDS011;41623;46.104;19.656;2022-11-15T03:17:28;5.18;;;3.55;;
55718;SDS011;41623;46.104;19.656;2022-11-15T03:19:58;9.55;;;4.88;;
55718;SDS011;41623;46.104;19.656;2022-11-15T03:22:25;11.00;;;5.13;;
55718;SDS011;41623;46.104;19.656;2022-11-15T03:24:53;8.50;;;3.80;;
55718;SDS011;41623;46.104;19.656;2022-11-15T03:27:21;9.88;;;6.30;;
55718;SDS011;41623;46.104;19.656;2022-11-15T03:29:52;8.95;;;4.88;;
55718;SDS011;41623;46.104;19.656;2022-11-15T03:32:21;5.75;;;3.42;;
55718;SDS011;41623;46.104;19.656;2022-11-15T03:37:15;5.28;;;2.70;;
55718;SDS011;41623;46.104;19.656;2022-11-15T03:39:42;4.65;;;2.75;;
55718;SDS011;41623;46.104;19.656;2022-11-15T03:42:22;5.80;;;3.40;;
55718;SDS011;41623;46.104;19.656;2022-11-15T03:44:55;10.45;;;4.45;;
55718;SDS011;41623;46.104;19.656;2022-11-15T03:47:43;8.70;;;5.10;;
55718;SDS011;41623;46.104;19.656;2022-11-15T03:50:12;8.45;;;4.60;;
55718;SDS011;41623;46.104;19.656;2022-11-15T03:52:39;8.38;;;4.65;;
55718;SDS011;41623;46.104;19.656;2022-11-15T03:55:07;9.90;;;5.53;;
55718;SDS011;41623;46.104;19.656;2022-11-15T03:57:33;9.55;;;5.45;;
55718;SDS011;41623;46.104;19.656;2022-11-15T03:59:59;8.18;;;5.45;;
55718;SDS011;41623;46.104;19.656;2022-11-15T04:02:25;10.43;;;6.25;;
55718;SDS011;41623;46.104;19.656;2022-11-15T04:04:51;9.75;;;5.95;;
55718;SDS011;41623;46.104;19.656;2022-11-15T04:07:17;14.57;;;6.53;;
55718;SDS011;41623;46.104;19.656;2022-11-15T04:09:43;14.77;;;6.32;;
55718;SDS011;41623;46.104;19.656;2022-11-15T04:12:34;9.68;;;5.25;;
55718;SDS011;41623;46.104;19.656;2022-11-15T04:15:07;11.27;;;6.20;;
55718;SDS011;41623;46.104;19.656;2022-11-15T04:17:47;8.70;;;5.10;;
55718;SDS011;41623;46.104;19.656;2022-11-15T04:20:17;10.45;;;4.63;;
55718;SDS011;41623;46.104;19.656;2022-11-15T04:23:03;10.95;;;5.07;;
55718;SDS011;41623;46.104;19.656;2022-11-15T04:25:52;11.18;;;5.00;;
55718;SDS011;41623;46.104;19.656;2022-11-15T04:28:18;12.00;;;5.07;;
55718;SDS011;41623;46.104;19.656;2022-11-15T04:30:44;10.90;;;5.53;;
55718;SDS011;41623;46.104;19.656;2022-11-15T04:33:10;7.18;;;4.72;;
55718;SDS011;41623;46.104;19.656;2022-11-15T04:35:37;10.82;;;5.15;;
55718;SDS011;41623;46.104;19.656;2022-11-15T04:38:03;5.90;;;4.03;;
55718;SDS011;41623;46.104;19.656;2022-11-15T04:40:30;10.88;;;4.70;;
55718;SDS011;41623;46.104;19.656;2022-11-15T04:42:56;11.88;;;5.75;;
55718;SDS011;41623;46.104;19.656;2022-11-15T04:45:22;9.30;;;5.05;;
55718;SDS011;41623;46.104;19.656;2022-11-15T04:47:49;13.13;;;4.68;;
55718;SDS011;41623;46.104;19.656;2022-11-15T04:50:15;9.43;;;4.82;;
55718;SDS011;41623;46.104;19.656;2022-11-15T04:52:42;15.98;;;6.63;;
55718;SDS011;41623;46.104;19.656;2022-11-15T04:55:09;13.30;;;6.53;;
55718;SDS011;41623;46.104;19.656;2022-11-15T04:57:35;9.10;;;4.82;;
55718;SDS011;41623;46.104;19.656;2022-11-15T05:00:05;8.00;;;4.72;;
55718;SDS011;41623;46.104;19.656;2022-11-15T05:02:31;8.05;;;4.40;;
55718;SDS011;41623;46.104;19.656;2022-11-15T05:05:16;10.00;;;4.55;;
55718;SDS011;41623;46.104;19.656;2022-11-15T05:07:42;13.68;;;5.88;;
55718;SDS011;41623;46.104;19.656;2022-11-15T05:10:08;7.32;;;3.97;;
55718;SDS011;41623;46.104;19.656;2022-11-15T05:12:34;5.88;;;4.10;;
55718;SDS011;41623;46.104;19.656;2022-11-15T05:15:01;5.32;;;3.95;;
55718;SDS011;41623;46.104;19.656;2022-11-15T05:17:27;9.70;;;6.05;;
55718;SDS011;41623;46.104;19.656;2022-11-15T05:19:53;12.82;;;5.50;;
55718;SDS011;41623;46.104;19.656;2022-11-15T05:22:19;5.97;;;4.07;;
55718;SDS011;41623;46.104;19.656;2022-11-15T05:24:45;9.20;;;5.07;;
55718;SDS011;41623;46.104;19.656;2022-11-15T05:27:11;11.18;;;4.88;;
55718;SDS011;41623;46.104;19.656;2022-11-15T05:29:37;9.82;;;4.68;;
55718;SDS011;41623;46.104;19.656;2022-11-15T05:32:04;14.18;;;5.72;;
55718;SDS011;41623;46.104;19.656;2022-11-15T05:34:31;10.05;;;5.50;;
55718;SDS011;41623;46.104;19.656;2022-11-15T05:36:57;9.55;;;4.20;;
55718;SDS011;41623;46.104;19.656;2022-11-15T05:39:24;7.68;;;4.13;;
55718;SDS011;41623;46.104;19.656;2022-11-15T05:41:59;11.48;;;4.50;;
55718;SDS011;41623;46.104;19.656;2022-11-15T05:44:27;12.00;;;6.68;;
55718;SDS011;41623;46.104;19.656;2022-11-15T05:46:53;10.05;;;5.22;;
55718;SDS011;41623;46.104;19.656;2022-11-15T05:49:21;8.00;;;4.57;;
55718;SDS011;41623;46.104;19.656;2022-11-15T05:51:48;8.73;;;4.30;;
55718;SDS011;41623;46.104;19.656;2022-11-15T05:54:15;6.72;;;4.55;;
55718;SDS011;41623;46.104;19.656;2022-11-15T05:56:41;10.07;;;4.65;;
55718;SDS011;41623;46.104;19.656;2022-11-15T05:59:08;21.63;;;8.85;;
55718;SDS011;41623;46.104;19.656;2022-11-15T06:01:35;17.75;;;8.13;;
55718;SDS011;41623;46.104;19.656;2022-11-15T06:04:01;21.45;;;10.60;;
55718;SDS011;41623;46.104;19.656;2022-11-15T06:06:27;11.07;;;5.70;;
55718;SDS011;41623;46.104;19.656;2022-11-15T06:08:53;9.48;;;5.10;;
55718;SDS011;41623;46.104;19.656;2022-11-15T06:11:20;19.27;;;6.28;;
55718;SDS011;41623;46.104;19.656;2022-11-15T06:13:46;10.63;;;5.32;;
55718;SDS011;41623;46.104;19.656;2022-11-15T06:16:12;11.18;;;5.18;;
55718;SDS011;41623;46.104;19.656;2022-11-15T06:18:38;12.05;;;5.38;;
55718;SDS011;41623;46.104;19.656;2022-11-15T06:21:04;11.73;;;5.30;;
55718;SDS011;41623;46.104;19.656;2022-11-15T06:23:33;11.05;;;5.47;;
55718;SDS011;41623;46.104;19.656;2022-11-15T06:26:00;11.65;;;5.68;;
55718;SDS011;41623;46.104;19.656;2022-11-15T06:28:30;7.30;;;4.68;;
55718;SDS011;41623;46.104;19.656;2022-11-15T06:31:01;9.93;;;4.00;;
55718;SDS011;41623;46.104;19.656;2022-11-15T06:33:27;8.25;;;3.83;;
55718;SDS011;41623;46.104;19.656;2022-11-15T06:35:53;7.63;;;4.38;;
55718;SDS011;41623;46.104;19.656;2022-11-15T06:38:19;8.88;;;3.83;;
55718;SDS011;41623;46.104;19.656;2022-11-15T06:40:45;6.93;;;4.18;;
55718;SDS011;41623;46.104;19.656;2022-11-15T06:43:11;8.88;;;4.40;;
55718;SDS011;41623;46.104;19.656;2022-11-15T06:45:38;8.52;;;3.90;;
55718;SDS011;41623;46.104;19.656;2022-11-15T06:48:04;8.65;;;4.38;;
55718;SDS011;41623;46.104;19.656;2022-11-15T06:50:30;10.95;;;5.75;;
55718;SDS011;41623;46.104;19.656;2022-11-15T06:53:00;9.65;;;4.65;;
55718;SDS011;41623;46.104;19.656;2022-11-15T06:55:26;10.55;;;5.55;;
55718;SDS011;41623;46.104;19.656;2022-11-15T06:57:52;9.75;;;4.03;;
55718;SDS011;41623;46.104;19.656;2022-11-15T07:00:20;11.30;;;5.35;;
55718;SDS011;41623;46.104;19.656;2022-11-15T07:02:46;10.55;;;6.13;;
55718;SDS011;41623;46.104;19.656;2022-11-15T07:05:13;6.82;;;3.40;;
55718;SDS011;41623;46.104;19.656;2022-11-15T07:07:39;23.25;;;6.25;;
55718;SDS011;41623;46.104;19.656;2022-11-15T07:10:05;11.48;;;4.45;;
55718;SDS011;41623;46.104;19.656;2022-11-15T07:12:32;16.83;;;5.53;;
55718;SDS011;41623;46.104;19.656;2022-11-15T07:14:58;21.10;;;5.35;;
55718;SDS011;41623;46.104;19.656;2022-11-15T07:17:24;13.27;;;5.07;;
55718;SDS011;41623;46.104;19.656;2022-11-15T07:19:50;11.10;;;4.75;;
55718;SDS011;41623;46.104;19.656;2022-11-15T07:22:16;9.90;;;4.40;;
55718;SDS011;41623;46.104;19.656;2022-11-15T07:24:42;21.65;;;5.88;;
55718;SDS011;41623;46.104;19.656;2022-11-15T07:27:08;14.65;;;6.13;;
55718;SDS011;41623;46.104;19.656;2022-11-15T07:29:35;16.02;;;5.22;;
55718;SDS011;41623;46.104;19.656;2022-11-15T07:32:01;17.30;;;6.22;;
55718;SDS011;41623;46.104;19.656;2022-11-15T07:34:27;9.45;;;4.68;;
55718;SDS011;41623;46.104;19.656;2022-11-15T07:36:53;11.95;;;5.38;;
55718;SDS011;41623;46.104;19.656;2022-11-15T07:39:19;10.75;;;6.45;;
55718;SDS011;41623;46.104;19.656;2022-11-15T07:41:45;9.43;;;5.40;;
55718;SDS011;41623;46.104;19.656;2022-11-15T07:44:13;10.93;;;5.60;;
55718;SDS011;41623;46.104;19.656;2022-11-15T07:46:39;12.25;;;5.28;;
55718;SDS011;41623;46.104;19.656;2022-11-15T07:49:05;15.50;;;6.45;;
55718;SDS011;41623;46.104;19.656;2022-11-15T07:51:31;10.60;;;5.68;;
55718;SDS011;41623;46.104;19.656;2022-11-15T07:53:57;11.30;;;5.55;;
55718;SDS011;41623;46.104;19.656;2022-11-15T07:56:23;24.75;;;7.80;;
55718;SDS011;41623;46.104;19.656;2022-11-15T07:58:49;29.20;;;10.40;;
55718;SDS011;41623;46.104;19.656;2022-11-15T08:01:15;11.55;;;6.07;;
55718;SDS011;41623;46.104;19.656;2022-11-15T08:03:41;16.23;;;7.18;;
55718;SDS011;41623;46.104;19.656;2022-11-15T08:06:07;10.00;;;4.82;;
55718;SDS011;41623;46.104;19.656;2022-11-15T08:08:33;14.55;;;5.82;;
55718;SDS011;41623;46.104;19.656;2022-11-15T08:10:59;10.90;;;6.63;;
55718;SDS011;41623;46.104;19.656;2022-11-15T08:13:25;11.45;;;6.03;;
55718;SDS011;41623;46.104;19.656;2022-11-15T08:15:51;15.90;;;6.55;;
55718;SDS011;41623;46.104;19.656;2022-11-15T08:18:17;14.70;;;6.22;;
55718;SDS011;41623;46.104;19.656;2022-11-15T08:20:43;15.57;;;6.10;;
55718;SDS011;41623;46.104;19.656;2022-11-15T08:23:10;15.95;;;6.90;;
55718;SDS011;41623;46.104;19.656;2022-11-15T08:25:38;12.05;;;6.30;;
55718;SDS011;41623;46.104;19.656;2022-11-15T08:28:05;12.27;;;6.15;;
55718;SDS011;41623;46.104;19.656;2022-11-15T08:30:34;19.58;;;8.23;;
55718;SDS011;41623;46.104;19.656;2022-11-15T08:33:01;21.58;;;8.82;;
55718;SDS011;41623;46.104;19.656;2022-11-15T08:35:27;22.10;;;8.70;;
55718;SDS011;41623;46.104;19.656;2022-11-15T08:37:53;14.00;;;6.97;;
55718;SDS011;41623;46.104;19.656;2022-11-15T08:40:19;14.02;;;7.15;;
55718;SDS011;41623;46.104;19.656;2022-11-15T08:42:46;19.33;;;7.20;;
55718;SDS011;41623;46.104;19.656;2022-11-15T08:45:12;27.02;;;11.05;;
55718;SDS011;41623;46.104;19.656;2022-11-15T08:47:38;25.92;;;11.77;;
55718;SDS011;41623;46.104;19.656;2022-11-15T08:50:05;16.27;;;7.10;;
55718;SDS011;41623;46.104;19.656;2022-11-15T08:52:31;14.27;;;7.22;;
55718;SDS011;41623;46.104;19.656;2022-11-15T08:54:57;22.92;;;6.93;;
55718;SDS011;41623;46.104;19.656;2022-11-15T08:57:23;19.10;;;7.50;;
55718;SDS011;41623;46.104;19.656;2022-11-15T08:59:49;17.38;;;7.55;;
55718;SDS011;41623;46.104;19.656;2022-11-15T09:02:15;16.23;;;7.20;;
55718;SDS011;41623;46.104;19.656;2022-11-15T09:04:42;16.88;;;7.65;;
55718;SDS011;41623;46.104;19.656;2022-11-15T09:07:10;12.85;;;6.05;;
55718;SDS011;41623;46.104;19.656;2022-11-15T09:09:36;18.27;;;8.40;;
55718;SDS011;41623;46.104;19.656;2022-11-15T09:12:03;17.23;;;7.75;;
55718;SDS011;41623;46.104;19.656;2022-11-15T09:14:29;20.40;;;7.57;;
55718;SDS011;41623;46.104;19.656;2022-11-15T09:16:56;36.95;;;7.75;;
55718;SDS011;41623;46.104;19.656;2022-11-15T09:19:22;19.98;;;8.30;;
55718;SDS011;41623;46.104;19.656;2022-11-15T09:21:48;17.98;;;7.85;;
55718;SDS011;41623;46.104;19.656;2022-11-15T09:24:14;20.13;;;7.22;;
55718;SDS011;41623;46.104;19.656;2022-11-15T09:26:40;22.25;;;8.18;;
55718;SDS011;41623;46.104;19.656;2022-11-15T09:29:06;17.05;;;7.65;;
55718;SDS011;41623;46.104;19.656;2022-11-15T09:31:32;35.58;;;9.63;;
55718;SDS011;41623;46.104;19.656;2022-11-15T09:33:58;16.10;;;7.78;;
55718;SDS011;41623;46.104;19.656;2022-11-15T09:36:25;16.42;;;7.43;;
55718;SDS011;41623;46.104;19.656;2022-11-15T09:38:51;24.42;;;8.73;;
55718;SDS011;41623;46.104;19.656;2022-11-15T09:49:00;17.98;;;8.30;;
55718;SDS011;41623;46.104;19.656;2022-11-15T09:51:28;19.73;;;7.60;;
55718;SDS011;41623;46.104;19.656;2022-11-15T09:54:55;24.92;;;9.95;;
55718;SDS011;41623;46.104;19.656;2022-11-15T09:56:50;19.63;;;8.45;;
55718;SDS011;41623;46.104;19.656;2022-11-15T09:59:24;19.15;;;8.75;;
55718;SDS011;41623;46.104;19.656;2022-11-15T10:04:20;22.88;;;9.43;;
55718;SDS011;41623;46.104;19.656;2022-11-15T10:06:55;18.23;;;7.03;;
55718;SDS011;41623;46.104;19.656;2022-11-15T10:09:43;31.80;;;7.90;;
55718;SDS011;41623;46.104;19.656;2022-11-15T10:12:12;18.50;;;7.32;;
55718;SDS011;41623;46.104;19.656;2022-11-15T10:14:38;13.43;;;6.90;;
55718;SDS011;41623;46.104;19.656;2022-11-15T10:17:18;12.55;;;7.13;;
55718;SDS011;41623;46.104;19.656;2022-11-15T10:24:48;22.42;;;9.23;;
55718;SDS011;41623;46.104;19.656;2022-11-15T10:27:17;18.58;;;7.38;;
55718;SDS011;41623;46.104;19.656;2022-11-15T10:29:49;19.63;;;7.38;;
55718;SDS011;41623;46.104;19.656;2022-11-15T10:32:17;16.02;;;8.13;;
55718;SDS011;41623;46.104;19.656;2022-11-15T10:34:43;15.73;;;7.60;;
55718;SDS011;41623;46.104;19.656;2022-11-15T10:37:10;21.15;;;8.35;;
55718;SDS011;41623;46.104;19.656;2022-11-15T10:39:36;13.82;;;7.90;;
55718;SDS011;41623;46.104;19.656;2022-11-15T10:44:46;26.05;;;7.40;;
55718;SDS011;41623;46.104;19.656;2022-11-15T10:47:23;13.82;;;5.50;;
55718;SDS011;41623;46.104;19.656;2022-11-15T10:50:00;22.25;;;9.05;;
55718;SDS011;41623;46.104;19.656;2022-11-15T10:52:26;23.90;;;8.57;;
55718;SDS011;41623;46.104;19.656;2022-11-15T10:57:26;24.05;;;8.73;;
55718;SDS011;41623;46.104;19.656;2022-11-15T10:59:54;23.92;;;10.23;;
55718;SDS011;41623;46.104;19.656;2022-11-15T11:02:31;17.60;;;8.23;;
55718;SDS011;41623;46.104;19.656;2022-11-15T11:04:57;14.32;;;6.38;;
55718;SDS011;41623;46.104;19.656;2022-11-15T11:07:25;30.67;;;7.07;;
55718;SDS011;41623;46.104;19.656;2022-11-15T11:09:59;29.50;;;7.63;;
55718;SDS011;41623;46.104;19.656;2022-11-15T11:12:30;9.32;;;6.00;;
55718;SDS011;41623;46.104;19.656;2022-11-15T11:14:57;15.18;;;7.05;;
55718;SDS011;41623;46.104;19.656;2022-11-15T11:22:45;13.63;;;6.43;;
55718;SDS011;41623;46.104;19.656;2022-11-15T11:30:17;18.95;;;8.13;;
55718;SDS011;41623;46.104;19.656;2022-11-15T11:35:19;22.35;;;7.50;;
55718;SDS011;41623;46.104;19.656;2022-11-15T11:37:47;23.95;;;7.30;;
55718;SDS011;41623;46.104;19.656;2022-11-15T11:47:59;17.17;;;6.97;;
55718;SDS011;41623;46.104;19.656;2022-11-15T11:50:28;7.80;;;5.38;;
55718;SDS011;41623;46.104;19.656;2022-11-15T11:55:26;17.30;;;6.00;;
55718;SDS011;41623;46.104;19.656;2022-11-15T12:00:29;18.23;;;8.07;;
55718;SDS011;41623;46.104;19.656;2022-11-15T12:03:07;17.95;;;7.72;;
55718;SDS011;41623;46.104;19.656;2022-11-15T12:05:36;22.10;;;7.38;;
55718;SDS011;41623;46.104;19.656;2022-11-15T12:10:51;14.60;;;8.35;;
55718;SDS011;41623;46.104;19.656;2022-11-15T12:13:19;19.52;;;9.55;;
55718;SDS011;41623;46.104;19.656;2022-11-15T12:15:53;15.55;;;6.78;;
55718;SDS011;41623;46.104;19.656;2022-11-15T12:18:22;17.10;;;7.00;;
55718;SDS011;41623;46.104;19.656;2022-11-15T12:21:01;16.55;;;8.10;;
55718;SDS011;41623;46.104;19.656;2022-11-15T12:23:35;14.10;;;7.57;;
55718;SDS011;41623;46.104;19.656;2022-11-15T12:26:05;23.77;;;9.13;;
55718;SDS011;41623;46.104;19.656;2022-11-15T12:28:40;23.27;;;9.43;;
55718;SDS011;41623;46.104;19.656;2022-11-15T12:31:14;13.82;;;7.32;;
55718;SDS011;41623;46.104;19.656;2022-11-15T12:33:46;20.03;;;7.03;;
55718;SDS011;41623;46.104;19.656;2022-11-15T12:41:18;19.25;;;8.18;;
55718;SDS011;41623;46.104;19.656;2022-11-15T12:43:45;15.60;;;7.43;;
55718;SDS011;41623;46.104;19.656;2022-11-15T12:46:22;16.13;;;7.60;;
55718;SDS011;41623;46.104;19.656;2022-11-15T12:48:51;20.75;;;8.10;;
55718;SDS011;41623;46.104;19.656;2022-11-15T12:51:21;21.77;;;8.85;;
55718;SDS011;41623;46.104;19.656;2022-11-15T12:53:47;25.13;;;9.80;;
55718;SDS011;41623;46.104;19.656;2022-11-15T13:01:09;18.25;;;8.80;;
55718;SDS011;41623;46.104;19.656;2022-11-15T13:03:35;22.67;;;10.15;;
55718;SDS011;41623;46.104;19.656;2022-11-15T13:06:55;22.65;;;9.15;;
55718;SDS011;41623;46.104;19.656;2022-11-15T13:12:11;25.60;;;10.02;;
55718;SDS011;41623;46.104;19.656;2022-11-15T13:22:45;19.08;;;9.90;;
55718;SDS011;41623;46.104;19.656;2022-11-15T13:35:58;15.10;;;7.68;;
55718;SDS011;41623;46.104;19.656;2022-11-15T13:40:53;31.73;;;9.68;;
55718;SDS011;41623;46.104;19.656;2022-11-15T13:48:34;17.70;;;8.70;;
55718;SDS011;41623;46.104;19.656;2022-11-15T13:51:04;23.88;;;8.90;;
55718;SDS011;41623;46.104;19.656;2022-11-15T13:53:32;19.85;;;8.73;;
55718;SDS011;41623;46.104;19.656;2022-11-15T13:55:59;14.63;;;8.43;;
55718;SDS011;41623;46.104;19.656;2022-11-15T13:58:25;17.88;;;8.60;;
55718;SDS011;41623;46.104;19.656;2022-11-15T14:01:02;17.13;;;9.80;;
55718;SDS011;41623;46.104;19.656;2022-11-15T14:03:29;28.73;;;12.18;;
55718;SDS011;41623;46.104;19.656;2022-11-15T14:08:37;22.67;;;9.13;;
55718;SDS011;41623;46.104;19.656;2022-11-15T14:11:07;19.40;;;9.68;;
55718;SDS011;41623;46.104;19.656;2022-11-15T14:13:34;33.10;;;10.50;;
55718;SDS011;41623;46.104;19.656;2022-11-15T14:18:49;21.58;;;9.88;;
55718;SDS011;41623;46.104;19.656;2022-11-15T14:21:15;29.98;;;9.65;;
55718;SDS011;41623;46.104;19.656;2022-11-15T14:23:42;24.52;;;10.15;;
55718;SDS011;41623;46.104;19.656;2022-11-15T14:26:25;25.50;;;9.75;;
55718;SDS011;41623;46.104;19.656;2022-11-15T14:28:52;36.92;;;12.70;;
55718;SDS011;41623;46.104;19.656;2022-11-15T14:31:18;30.17;;;11.88;;
55718;SDS011;41623;46.104;19.656;2022-11-15T14:33:45;31.33;;;12.70;;
55718;SDS011;41623;46.104;19.656;2022-11-15T14:36:19;34.92;;;11.88;;
55718;SDS011;41623;46.104;19.656;2022-11-15T14:38:46;30.52;;;11.82;;
55718;SDS011;41623;46.104;19.656;2022-11-15T14:41:23;29.02;;;11.00;;
55718;SDS011;41623;46.104;19.656;2022-11-15T14:43:51;32.15;;;12.52;;
55718;SDS011;41623;46.104;19.656;2022-11-15T14:46:17;37.83;;;13.60;;
55718;SDS011;41623;46.104;19.656;2022-11-15T14:48:43;36.05;;;12.52;;
55718;SDS011;41623;46.104;19.656;2022-11-15T14:51:11;29.73;;;12.15;;
55718;SDS011;41623;46.104;19.656;2022-11-15T14:53:37;18.83;;;9.20;;
55718;SDS011;41623;46.104;19.656;2022-11-15T14:56:03;36.95;;;12.05;;
55718;SDS011;41623;46.104;19.656;2022-11-15T14:58:29;20.65;;;10.52;;
55718;SDS011;41623;46.104;19.656;2022-11-15T15:00:55;27.55;;;10.73;;
55718;SDS011;41623;46.104;19.656;2022-11-15T15:03:21;25.77;;;10.27;;
55718;SDS011;41623;46.104;19.656;2022-11-15T15:05:47;37.13;;;12.70;;
55718;SDS011;41623;46.104;19.656;2022-11-15T15:08:14;31.48;;;12.52;;
55718;SDS011;41623;46.104;19.656;2022-11-15T15:10:41;30.52;;;10.48;;
55718;SDS011;41623;46.104;19.656;2022-11-15T15:13:26;36.90;;;11.85;;
55718;SDS011;41623;46.104;19.656;2022-11-15T15:15:53;26.48;;;10.00;;
55718;SDS011;41623;46.104;19.656;2022-11-15T15:18:19;25.80;;;11.38;;
55718;SDS011;41623;46.104;19.656;2022-11-15T15:20:47;30.33;;;10.88;;
55718;SDS011;41623;46.104;19.656;2022-11-15T15:23:15;32.65;;;12.27;;
55718;SDS011;41623;46.104;19.656;2022-11-15T15:25:42;28.63;;;11.90;;
55718;SDS011;41623;46.104;19.656;2022-11-15T15:28:10;38.05;;;10.88;;
55718;SDS011;41623;46.104;19.656;2022-11-15T15:30:36;23.98;;;10.10;;
55718;SDS011;41623;46.104;19.656;2022-11-15T15:33:02;30.75;;;10.93;;
55718;SDS011;41623;46.104;19.656;2022-11-15T15:35:30;29.80;;;12.65;;
55718;SDS011;41623;46.104;19.656;2022-11-15T15:37:56;22.73;;;9.73;;
55718;SDS011;41623;46.104;19.656;2022-11-15T15:40:22;25.38;;;10.52;;
55718;SDS011;41623;46.104;19.656;2022-11-15T15:42:49;21.08;;;7.57;;
55718;SDS011;41623;46.104;19.656;2022-11-15T15:45:16;27.00;;;11.63;;
55718;SDS011;41623;46.104;19.656;2022-11-15T15:47:43;21.02;;;7.30;;
55718;SDS011;41623;46.104;19.656;2022-11-15T15:52:38;24.35;;;10.02;;
55718;SDS011;41623;46.104;19.656;2022-11-15T15:55:04;26.70;;;11.52;;
55718;SDS011;41623;46.104;19.656;2022-11-15T15:57:30;28.20;;;11.75;;
55718;SDS011;41623;46.104;19.656;2022-11-15T15:59:56;21.65;;;10.02;;
55718;SDS011;41623;46.104;19.656;2022-11-15T16:02:22;36.92;;;12.98;;
55718;SDS011;41623;46.104;19.656;2022-11-15T16:04:48;27.02;;;10.18;;
55718;SDS011;41623;46.104;19.656;2022-11-15T16:07:20;34.38;;;11.82;;
55718;SDS011;41623;46.104;19.656;2022-11-15T16:09:48;19.90;;;10.10;;
55718;SDS011;41623;46.104;19.656;2022-11-15T16:12:30;29.30;;;11.27;;
55718;SDS011;41623;46.104;19.656;2022-11-15T16:14:57;50.00;;;13.13;;
55718;SDS011;41623;46.104;19.656;2022-11-15T16:17:24;30.88;;;13.25;;
55718;SDS011;41623;46.104;19.656;2022-11-15T16:19:51;29.60;;;13.05;;
55718;SDS011;41623;46.104;19.656;2022-11-15T16:22:17;25.15;;;11.73;;
55718;SDS011;41623;46.104;19.656;2022-11-15T16:24:43;24.17;;;11.10;;
55718;SDS011;41623;46.104;19.656;2022-11-15T16:27:16;30.25;;;12.75;;
55718;SDS011;41623;46.104;19.656;2022-11-15T16:29:42;27.17;;;12.50;;
55718;SDS011;41623;46.104;19.656;2022-11-15T16:32:09;25.58;;;9.68;;
55718;SDS011;41623;46.104;19.656;2022-11-15T16:34:35;30.70;;;12.23;;